Airfield :
LOGIN :

Register | Disclaimer

   EN    FR    IT 

 










Legend :    VFR   Marginal VFR   IFR   Intensive IFR   Very Intensive IFR
Visi :
Ceiling :
>= 8 km
>= 3000ft
5 to 8 km
1000 to 3000 ft
1500m to 5 km
500 to 1000 ft
800 to 1500m
200 to 500 ft
< 800m
< 200 ft
Symbols :   Thunderstorms  Fog  Heavy snow  Heavy precipitations  Wind > 20 kt
SIGMETs :     Misc.  Thunderstorms  Icing  Turbulence  Mountain Waves  Volcanic Ashes







- Airport Elevation : 299 ft
- IATA code : EDM
- Download approach charts


LFRI - La Roche Sur Yon - Les Ajoncs

CURRENT METAR :
  • 191830Z AUTO 05011KT CAVOK 18/04 Q1021 NOSIG

EXPIRED METARs :
  • 191800Z AUTO 06011KT CAVOK 19/03 Q1021 NOSIG
  • 191730Z AUTO 06015KT CAVOK 20/03 Q1021 NOSIG
  • 191700Z AUTO 06015G25KT 030V090 CAVOK 21/03 Q1021 BECMG 06013KT
  • 191630Z AUTO 06015KT CAVOK 22/04 Q1021 TEMPO 06020G32KT
  • 191600Z AUTO 06018KT 030V090 CAVOK 22/03 Q1021 TEMPO 06020G32KT

TAF TAF LFRI
Valid from the 19 at 18:00 until the 20 at 18:00 UTC


191700Z 1918/2018 06015G25KT CAVOK
BECMG 1918/1920 06013KT
No reported NOTAMs for that airfield.



MET'MAP, your aeronautical weather chart ! - Copyright ORBIFLY December 2007 - Disclaimer

ORBIFLY MET'MAP TEAM :

Programming & Development : Alexandra Zaïnal
Concept & Development : Baudouin d'Aumeries
Co-Development & Prog : Marc-Olivier Méhu
Technical & hardware support : Manuel Goepfert

Contact : metmap@orbifly.com




SOURCES & CREDITS :

   NOAA